Greenville, California
Current Conditions -  °F | °C
As of 2:45 PM on Thursday 27 Nov 2014 (Local Time) from KCIC Reporting Station
Broken Clouds Broken Clouds  
Wind Chill: 63°   Ceiling: 20000
Heat Index: 63°   Visibility: 25mi
Dew Point: 46°   Wind: 0mph
Humidity: 55%   Direction: NA
Pressure: 30.1"   Gusts: NA
Location:  40.14°N, 120.95°W
Report Text: KCIC 272245Z 00000KT 25SM SCT150 BKN200 17/08 A3010
Loading
Personal Weather Stations






























Interactive Weather Map New forecast layout! Learn more

10-Day Weather Forecast

Advertisements
Track Severe Weather on mobile